sensor_id;sensor_type;location;lat;lon;timestamp;pressure;altitude;pressure_sealevel;temperature;humidity
37778;BME280;23615;51.506;7.678;2024-03-06T00:02:10;100182.69;;;6.61;100.00
37778;BME280;23615;51.506;7.678;2024-03-06T00:04:35;100185.16;;;6.62;100.00
37778;BME280;23615;51.506;7.678;2024-03-06T00:07:00;100186.38;;;6.66;100.00
37778;BME280;23615;51.506;7.678;2024-03-06T00:09:26;100192.69;;;6.65;100.00
37778;BME280;23615;51.506;7.678;2024-03-06T00:11:57;100199.22;;;6.63;100.00
37778;BME280;23615;51.506;7.678;2024-03-06T00:14:23;100201.47;;;6.66;100.00
37778;BME280;23615;51.506;7.678;2024-03-06T00:16:49;100195.56;;;6.64;100.00
37778;BME280;23615;51.506;7.678;2024-03-06T00:19:16;100212.84;;;6.60;100.00
37778;BME280;23615;51.506;7.678;2024-03-06T00:21:41;100205.94;;;6.65;100.00
37778;BME280;23615;51.506;7.678;2024-03-06T00:24:07;100204.34;;;6.64;100.00
37778;BME280;23615;51.506;7.678;2024-03-06T00:26:32;100206.09;;;6.57;100.00
37778;BME280;23615;51.506;7.678;2024-03-06T00:28:57;100212.75;;;6.47;100.00
37778;BME280;23615;51.506;7.678;2024-03-06T00:31:23;100209.09;;;6.48;100.00
37778;BME280;23615;51.506;7.678;2024-03-06T00:33:48;100214.16;;;6.43;100.00
37778;BME280;23615;51.506;7.678;2024-03-06T00:36:13;100209.03;;;6.41;100.00
37778;BME280;23615;51.506;7.678;2024-03-06T00:38:39;100210.72;;;6.49;100.00
37778;BME280;23615;51.506;7.678;2024-03-06T00:41:04;100220.91;;;6.45;100.00
37778;BME280;23615;51.506;7.678;2024-03-06T00:43:29;100221.28;;;6.42;100.00
37778;BME280;23615;51.506;7.678;2024-03-06T00:45:55;100222.47;;;6.39;100.00
37778;BME280;23615;51.506;7.678;2024-03-06T00:48:21;100224.94;;;6.41;100.00
37778;BME280;23615;51.506;7.678;2024-03-06T00:50:46;100221.28;;;6.42;100.00
37778;BME280;23615;51.506;7.678;2024-03-06T00:53:11;100220.09;;;6.45;100.00
37778;BME280;23615;51.506;7.678;2024-03-06T00:55:37;100226.22;;;6.45;100.00
37778;BME280;23615;51.506;7.678;2024-03-06T00:58:02;100222.59;;;6.53;100.00
37778;BME280;23615;51.506;7.678;2024-03-06T01:00:29;100219.09;;;6.46;100.00
37778;BME280;23615;51.506;7.678;2024-03-06T01:02:55;100227.84;;;6.46;100.00
37778;BME280;23615;51.506;7.678;2024-03-06T01:05:20;100241.28;;;6.45;100.00
37778;BME280;23615;51.506;7.678;2024-03-06T01:07:45;100241.28;;;6.45;100.00
37778;BME280;23615;51.506;7.678;2024-03-06T01:10:11;100243.13;;;6.44;100.00
37778;BME280;23615;51.506;7.678;2024-03-06T01:12:37;100250.66;;;6.47;100.00
37778;BME280;23615;51.506;7.678;2024-03-06T01:15:03;100248.84;;;6.48;100.00
37778;BME280;23615;51.506;7.678;2024-03-06T01:17:29;100246.59;;;6.45;100.00
37778;BME280;23615;51.506;7.678;2024-03-06T01:19:54;100244.13;;;6.43;100.00
37778;BME280;23615;51.506;7.678;2024-03-06T01:22:22;100249.25;;;6.45;100.00
37778;BME280;23615;51.506;7.678;2024-03-06T01:24:47;100246.81;;;6.50;100.00
37778;BME280;23615;51.506;7.678;2024-03-06T01:27:16;100252.81;;;6.58;100.00
37778;BME280;23615;51.506;7.678;2024-03-06T01:29:41;100253.78;;;6.51;100.00
37778;BME280;23615;51.506;7.678;2024-03-06T01:32:07;100251.13;;;6.51;100.00
37778;BME280;23615;51.506;7.678;2024-03-06T01:34:32;100254.72;;;6.43;100.00
37778;BME280;23615;51.506;7.678;2024-03-06T01:36:58;100253.44;;;6.39;100.00
37778;BME280;23615;51.506;7.678;2024-03-06T01:39:23;100255.09;;;6.40;100.00
37778;BME280;23615;51.506;7.678;2024-03-06T01:41:50;100256.66;;;6.56;100.00
37778;BME280;23615;51.506;7.678;2024-03-06T01:44:16;100258.56;;;6.62;100.00
37778;BME280;23615;51.506;7.678;2024-03-06T01:46:46;100253.06;;;6.63;100.00
37778;BME280;23615;51.506;7.678;2024-03-06T01:49:12;100250.97;;;6.59;100.00
37778;BME280;23615;51.506;7.678;2024-03-06T01:51:39;100253.63;;;6.59;100.00
37778;BME280;23615;51.506;7.678;2024-03-06T01:54:06;100260.72;;;6.52;100.00
37778;BME280;23615;51.506;7.678;2024-03-06T01:56:33;100252.34;;;6.27;100.00
37778;BME280;23615;51.506;7.678;2024-03-06T01:59:00;100253.28;;;6.19;100.00
37778;BME280;23615;51.506;7.678;2024-03-06T02:01:29;100249.56;;;6.14;100.00
37778;BME280;23615;51.506;7.678;2024-03-06T02:03:56;100256.69;;;6.13;100.00
37778;BME280;23615;51.506;7.678;2024-03-06T02:06:21;100257.13;;;6.17;100.00
37778;BME280;23615;51.506;7.678;2024-03-06T02:08:47;100260.03;;;6.22;100.00
37778;BME280;23615;51.506;7.678;2024-03-06T02:11:12;100260.59;;;6.17;100.00
37778;BME280;23615;51.506;7.678;2024-03-06T02:13:39;100267.28;;;6.13;100.00
37778;BME280;23615;51.506;7.678;2024-03-06T02:16:04;100270.19;;;6.18;100.00
37778;BME280;23615;51.506;7.678;2024-03-06T02:18:30;100268.94;;;6.14;100.00
37778;BME280;23615;51.506;7.678;2024-03-06T02:20:56;100266.47;;;6.13;100.00
37778;BME280;23615;51.506;7.678;2024-03-06T02:23:22;100269.94;;;6.13;100.00
37778;BME280;23615;51.506;7.678;2024-03-06T02:25:47;100267.34;;;6.20;100.00
37778;BME280;23615;51.506;7.678;2024-03-06T02:28:13;100267.28;;;6.13;100.00
37778;BME280;23615;51.506;7.678;2024-03-06T02:30:38;100264.22;;;6.10;100.00
37778;BME280;23615;51.506;7.678;2024-03-06T02:33:04;100264.44;;;6.15;100.00
37778;BME280;23615;51.506;7.678;2024-03-06T02:35:31;100262.63;;;6.15;100.00
37778;BME280;23615;51.506;7.678;2024-03-06T02:37:59;100267.97;;;6.22;100.00
37778;BME280;23615;51.506;7.678;2024-03-06T02:40:24;100268.03;;;6.28;100.00
37778;BME280;23615;51.506;7.678;2024-03-06T02:42:50;100262.72;;;6.28;100.00
37778;BME280;23615;51.506;7.678;2024-03-06T02:45:15;100276.09;;;6.20;100.00
37778;BME280;23615;51.506;7.678;2024-03-06T02:47:41;100271.25;;;6.24;100.00
37778;BME280;23615;51.506;7.678;2024-03-06T02:50:07;100272.72;;;6.26;100.00
37778;BME280;23615;51.506;7.678;2024-03-06T02:52:32;100262.94;;;6.27;100.00
37778;BME280;23615;51.506;7.678;2024-03-06T02:54:58;100265.97;;;6.24;100.00
37778;BME280;23615;51.506;7.678;2024-03-06T02:57:26;100264.31;;;6.23;100.00
37778;BME280;23615;51.506;7.678;2024-03-06T02:59:52;100267.56;;;6.18;100.00
37778;BME280;23615;51.506;7.678;2024-03-06T03:02:17;100266.72;;;6.18;100.00
37778;BME280;23615;51.506;7.678;2024-03-06T03:04:43;100271.22;;;6.17;100.00
37778;BME280;23615;51.506;7.678;2024-03-06T03:07:09;100270.38;;;6.17;100.00
37778;BME280;23615;51.506;7.678;2024-03-06T03:09:35;100276.03;;;6.14;100.00
37778;BME280;23615;51.506;7.678;2024-03-06T03:12:01;100274.34;;;6.06;100.00
37778;BME280;23615;51.506;7.678;2024-03-06T03:14:26;100278.13;;;5.97;100.00
37778;BME280;23615;51.506;7.678;2024-03-06T03:16:52;100278.88;;;5.91;100.00
37778;BME280;23615;51.506;7.678;2024-03-06T03:19:18;100277.75;;;5.85;100.00
37778;BME280;23615;51.506;7.678;2024-03-06T03:21:44;100279.38;;;5.86;100.00
37778;BME280;23615;51.506;7.678;2024-03-06T03:24:10;100282.03;;;5.86;100.00
37778;BME280;23615;51.506;7.678;2024-03-06T03:26:35;100285.88;;;5.84;100.00
37778;BME280;23615;51.506;7.678;2024-03-06T03:29:02;100288.50;;;5.84;100.00
37778;BME280;23615;51.506;7.678;2024-03-06T03:31:28;100293.63;;;5.85;100.00
37778;BME280;23615;51.506;7.678;2024-03-06T03:33:53;100291.16;;;5.84;100.00
37778;BME280;23615;51.506;7.678;2024-03-06T03:36:18;100290.66;;;5.88;100.00
37778;BME280;23615;51.506;7.678;2024-03-06T03:38:43;100293.72;;;6.07;100.00
37778;BME280;23615;51.506;7.678;2024-03-06T03:41:10;100294.78;;;6.12;100.00
37778;BME280;23615;51.506;7.678;2024-03-06T03:43:38;100298.00;;;6.08;100.00
37778;BME280;23615;51.506;7.678;2024-03-06T03:46:04;100291.88;;;6.07;100.00
37778;BME280;23615;51.506;7.678;2024-03-06T03:48:31;100296.47;;;5.98;100.00
37778;BME280;23615;51.506;7.678;2024-03-06T03:50:56;100295.22;;;5.80;100.00
37778;BME280;23615;51.506;7.678;2024-03-06T03:53:21;100299.31;;;5.82;100.00
37778;BME280;23615;51.506;7.678;2024-03-06T03:55:47;100298.28;;;5.83;100.00
37778;BME280;23615;51.506;7.678;2024-03-06T03:58:12;100296.66;;;5.82;100.00
37778;BME280;23615;51.506;7.678;2024-03-06T04:00:37;100299.50;;;5.81;100.00
37778;BME280;23615;51.506;7.678;2024-03-06T04:03:03;100302.31;;;5.79;100.00
37778;BME280;23615;51.506;7.678;2024-03-06T04:05:29;100303.25;;;5.72;100.00
37778;BME280;23615;51.506;7.678;2024-03-06T04:07:54;100311.19;;;5.72;100.00
37778;BME280;23615;51.506;7.678;2024-03-06T04:10:19;100314.84;;;5.71;100.00
37778;BME280;23615;51.506;7.678;2024-03-06T04:12:46;100318.97;;;5.58;100.00
37778;BME280;23615;51.506;7.678;2024-03-06T04:15:11;100320.13;;;5.56;100.00
37778;BME280;23615;51.506;7.678;2024-03-06T04:17:36;100318.88;;;5.52;100.00
37778;BME280;23615;51.506;7.678;2024-03-06T04:20:02;100317.22;;;5.51;100.00
37778;BME280;23615;51.506;7.678;2024-03-06T04:22:28;100325.81;;;5.53;100.00
37778;BME280;23615;51.506;7.678;2024-03-06T04:24:54;100329.47;;;5.52;100.00
37778;BME280;23615;51.506;7.678;2024-03-06T04:27:21;100332.63;;;5.47;100.00
37778;BME280;23615;51.506;7.678;2024-03-06T04:29:46;100331.81;;;5.47;100.00
37778;BME280;23615;51.506;7.678;2024-03-06T04:32:11;100341.53;;;5.54;100.00
37778;BME280;23615;51.506;7.678;2024-03-06T04:34:37;100342.34;;;5.55;100.00
37778;BME280;23615;51.506;7.678;2024-03-06T04:37:02;100346.88;;;5.46;100.00
37778;BME280;23615;51.506;7.678;2024-03-06T04:39:27;100341.16;;;5.43;100.00
37778;BME280;23615;51.506;7.678;2024-03-06T04:41:53;100349.09;;;5.43;100.00
37778;BME280;23615;51.506;7.678;2024-03-06T04:44:18;100346.88;;;5.46;100.00
37778;BME280;23615;51.506;7.678;2024-03-06T04:46:43;100348.44;;;5.55;100.00
37778;BME280;23615;51.506;7.678;2024-03-06T04:49:09;100357.84;;;5.43;100.00
37778;BME280;23615;51.506;7.678;2024-03-06T04:51:34;100365.47;;;5.38;100.00
37778;BME280;23615;51.506;7.678;2024-03-06T04:53:59;100369.78;;;5.39;100.00
37778;BME280;23615;51.506;7.678;2024-03-06T04:56:24;100374.06;;;5.40;100.00
37778;BME280;23615;51.506;7.678;2024-03-06T04:58:50;100379.19;;;5.42;100.00
37778;BME280;23615;51.506;7.678;2024-03-06T05:01:16;100377.38;;;5.42;100.00
37778;BME280;23615;51.506;7.678;2024-03-06T05:03:42;100381.00;;;5.41;100.00
37778;BME280;23615;51.506;7.678;2024-03-06T05:06:07;100384.31;;;5.43;100.00
37778;BME280;23615;51.506;7.678;2024-03-06T05:08:32;100379.19;;;5.42;100.00
37778;BME280;23615;51.506;7.678;2024-03-06T05:11:02;100380.34;;;5.39;100.00
37778;BME280;23615;51.506;7.678;2024-03-06T05:13:27;100385.81;;;5.38;100.00
37778;BME280;23615;51.506;7.678;2024-03-06T05:15:53;100382.56;;;5.36;100.00
37778;BME280;23615;51.506;7.678;2024-03-06T05:18:20;100388.84;;;5.35;100.00
37778;BME280;23615;51.506;7.678;2024-03-06T05:20:46;100394.25;;;5.41;100.00
37778;BME280;23615;51.506;7.678;2024-03-06T05:23:11;100390.88;;;5.62;100.00
37778;BME280;23615;51.506;7.678;2024-03-06T05:25:37;100394.97;;;5.64;100.00
37778;BME280;23615;51.506;7.678;2024-03-06T05:28:04;100407.31;;;5.72;100.00
37778;BME280;23615;51.506;7.678;2024-03-06T05:30:29;100409.13;;;5.57;100.00
37778;BME280;23615;51.506;7.678;2024-03-06T05:32:55;100406.47;;;5.57;100.00
37778;BME280;23615;51.506;7.678;2024-03-06T05:35:20;100411.75;;;5.42;100.00
37778;BME280;23615;51.506;7.678;2024-03-06T05:37:46;100408.63;;;5.39;100.00
37778;BME280;23615;51.506;7.678;2024-03-06T05:40:11;100414.56;;;5.26;100.00
37778;BME280;23615;51.506;7.678;2024-03-06T05:42:37;100404.75;;;5.12;100.00
37778;BME280;23615;51.506;7.678;2024-03-06T05:45:02;100415.88;;;5.07;100.00
37778;BME280;23615;51.506;7.678;2024-03-06T05:47:35;100410.59;;;5.07;100.00
37778;BME280;23615;51.506;7.678;2024-03-06T05:50:01;100418.34;;;5.09;100.00
37778;BME280;23615;51.506;7.678;2024-03-06T05:52:30;100428.94;;;5.09;100.00
37778;BME280;23615;51.506;7.678;2024-03-06T05:54:55;100423.81;;;5.07;100.00
37778;BME280;23615;51.506;7.678;2024-03-06T05:57:20;100418.34;;;5.09;100.00
37778;BME280;23615;51.506;7.678;2024-03-06T05:59:46;100422.34;;;5.05;100.00
37778;BME280;23615;51.506;7.678;2024-03-06T06:02:11;100430.44;;;5.03;100.00
37778;BME280;23615;51.506;7.678;2024-03-06T06:04:36;100434.91;;;5.03;100.00
37778;BME280;23615;51.506;7.678;2024-03-06T06:07:01;100436.94;;;5.01;100.00
37778;BME280;23615;51.506;7.678;2024-03-06T06:09:28;100432.44;;;5.01;100.00
37778;BME280;23615;51.506;7.678;2024-03-06T06:11:53;100440.56;;;5.00;100.00
37778;BME280;23615;51.506;7.678;2024-03-06T06:14:19;100444.88;;;5.01;100.00
37778;BME280;23615;51.506;7.678;2024-03-06T06:16:44;100440.28;;;4.95;100.00
37778;BME280;23615;51.506;7.678;2024-03-06T06:19:10;100441.09;;;4.95;100.00
37778;BME280;23615;51.506;7.678;2024-03-06T06:21:35;100447.84;;;4.98;100.00
37778;BME280;23615;51.506;7.678;2024-03-06T06:24:02;100447.69;;;4.99;100.00
37778;BME280;23615;51.506;7.678;2024-03-06T06:26:29;100445.03;;;4.99;100.00
37778;BME280;23615;51.506;7.678;2024-03-06T06:28:54;100457.25;;;5.00;100.00
37778;BME280;23615;51.506;7.678;2024-03-06T06:31:19;100451.16;;;5.00;100.00
37778;BME280;23615;51.506;7.678;2024-03-06T06:33:45;100450.16;;;5.01;100.00
37778;BME280;23615;51.506;7.678;2024-03-06T06:36:11;100458.09;;;5.01;100.00
37778;BME280;23615;51.506;7.678;2024-03-06T06:38:36;100462.84;;;5.05;100.00
37778;BME280;23615;51.506;7.678;2024-03-06T06:41:01;100468.06;;;5.13;100.00
37778;BME280;23615;51.506;7.678;2024-03-06T06:43:28;100476.00;;;5.13;100.00
37778;BME280;23615;51.506;7.678;2024-03-06T06:45:53;100481.81;;;5.09;100.00
37778;BME280;23615;51.506;7.678;2024-03-06T06:48:18;100491.41;;;5.10;100.00
37778;BME280;23615;51.506;7.678;2024-03-06T06:50:44;100485.09;;;5.11;100.00
37778;BME280;23615;51.506;7.678;2024-03-06T06:53:09;100491.13;;;5.19;100.00
37778;BME280;23615;51.506;7.678;2024-03-06T06:55:34;100489.66;;;5.40;100.00
37778;BME280;23615;51.506;7.678;2024-03-06T06:58:01;100493.09;;;5.25;100.00
37778;BME280;23615;51.506;7.678;2024-03-06T07:00:26;100491.47;;;5.39;100.00
37778;BME280;23615;51.506;7.678;2024-03-06T07:02:51;100492.97;;;5.42;100.00
37778;BME280;23615;51.506;7.678;2024-03-06T07:05:17;100492.03;;;5.35;100.00
37778;BME280;23615;51.506;7.678;2024-03-06T07:07:43;100502.38;;;5.44;100.00
37778;BME280;23615;51.506;7.678;2024-03-06T07:10:08;100501.47;;;5.29;100.00
37778;BME280;23615;51.506;7.678;2024-03-06T07:12:35;100500.88;;;5.27;100.00
37778;BME280;23615;51.506;7.678;2024-03-06T07:15:00;100502.69;;;5.26;100.00
37778;BME280;23615;51.506;7.678;2024-03-06T07:17:26;100506.34;;;5.40;100.00
37778;BME280;23615;51.506;7.678;2024-03-06T07:19:51;100509.75;;;5.49;100.00
37778;BME280;23615;51.506;7.678;2024-03-06T07:22:20;100512.41;;;5.49;100.00
37778;BME280;23615;51.506;7.678;2024-03-06T07:24:45;100519.94;;;5.37;100.00
37778;BME280;23615;51.506;7.678;2024-03-06T07:27:11;100515.47;;;5.38;100.00
37778;BME280;23615;51.506;7.678;2024-03-06T07:29:37;100529.75;;;5.28;100.00
37778;BME280;23615;51.506;7.678;2024-03-06T07:32:02;100526.13;;;5.30;100.00
37778;BME280;23615;51.506;7.678;2024-03-06T07:34:28;100528.31;;;5.26;100.00
37778;BME280;23615;51.506;7.678;2024-03-06T07:36:53;100529.19;;;5.41;100.00
37778;BME280;23615;51.506;7.678;2024-03-06T07:39:19;100532.47;;;5.43;100.00
37778;BME280;23615;51.506;7.678;2024-03-06T07:41:45;100539.41;;;5.44;100.00
37778;BME280;23615;51.506;7.678;2024-03-06T07:44:10;100543.00;;;5.51;100.00
37778;BME280;23615;51.506;7.678;2024-03-06T07:46:36;100545.28;;;5.54;100.00
37778;BME280;23615;51.506;7.678;2024-03-06T07:49:01;100543.75;;;5.60;100.00
37778;BME280;23615;51.506;7.678;2024-03-06T07:51:28;100556.97;;;5.60;100.00
37778;BME280;23615;51.506;7.678;2024-03-06T07:53:55;100557.72;;;5.69;100.00
37778;BME280;23615;51.506;7.678;2024-03-06T07:56:20;100560.84;;;5.72;100.00
37778;BME280;23615;51.506;7.678;2024-03-06T07:58:45;100562.78;;;5.78;100.00
37778;BME280;23615;51.506;7.678;2024-03-06T08:01:11;100581.56;;;5.91;100.00
37778;BME280;23615;51.506;7.678;2024-03-06T08:03:39;100578.28;;;5.89;100.00
37778;BME280;23615;51.506;7.678;2024-03-06T08:06:05;100572.28;;;5.87;100.00
37778;BME280;23615;51.506;7.678;2024-03-06T08:08:30;100588.69;;;5.91;100.00
37778;BME280;23615;51.506;7.678;2024-03-06T08:10:56;100578.56;;;5.72;100.00
37778;BME280;23615;51.506;7.678;2024-03-06T08:13:24;100585.53;;;5.64;100.00
37778;BME280;23615;51.506;7.678;2024-03-06T08:15:49;100577.91;;;5.70;100.00
37778;BME280;23615;51.506;7.678;2024-03-06T08:18:15;100580.72;;;5.68;100.00
37778;BME280;23615;51.506;7.678;2024-03-06T08:20:40;100581.91;;;5.65;100.00
37778;BME280;23615;51.506;7.678;2024-03-06T08:23:07;100592.34;;;5.90;100.00
37778;BME280;23615;51.506;7.678;2024-03-06T08:25:32;100596.06;;;5.95;100.00
37778;BME280;23615;51.506;7.678;2024-03-06T08:27:58;100597.13;;;6.09;100.00
37778;BME280;23615;51.506;7.678;2024-03-06T08:30:24;100600.22;;;6.13;100.00
37778;BME280;23615;51.506;7.678;2024-03-06T08:32:50;100604.88;;;6.11;100.00
37778;BME280;23615;51.506;7.678;2024-03-06T08:35:16;100607.72;;;6.09;100.00
37778;BME280;23615;51.506;7.678;2024-03-06T08:37:43;100612.31;;;5.92;100.00
37778;BME280;23615;51.506;7.678;2024-03-06T08:40:09;100620.16;;;6.09;100.00
37778;BME280;23615;51.506;7.678;2024-03-06T08:42:45;100615.13;;;6.14;100.00
37778;BME280;23615;51.506;7.678;2024-03-06T08:45:12;100626.72;;;6.13;100.00
37778;BME280;23615;51.506;7.678;2024-03-06T08:47:38;100623.97;;;6.21;100.00
37778;BME280;23615;51.506;7.678;2024-03-06T08:50:03;100622.97;;;6.22;100.00
37778;BME280;23615;51.506;7.678;2024-03-06T08:52:29;100627.34;;;6.15;100.00
37778;BME280;23615;51.506;7.678;2024-03-06T08:54:56;100628.72;;;6.11;100.00
37778;BME280;23615;51.506;7.678;2024-03-06T08:57:21;100623.41;;;6.11;100.00
37778;BME280;23615;51.506;7.678;2024-03-06T08:59:47;100635.47;;;6.13;100.00
37778;BME280;23615;51.506;7.678;2024-03-06T09:02:19;100632.47;;;6.16;100.00
37778;BME280;23615;51.506;7.678;2024-03-06T09:04:45;100636.97;;;6.30;100.00
37778;BME280;23615;51.506;7.678;2024-03-06T09:07:11;100639.28;;;6.33;100.00
37778;BME280;23615;51.506;7.678;2024-03-06T09:09:37;100642.31;;;6.60;100.00
37778;BME280;23615;51.506;7.678;2024-03-06T09:12:04;100643.88;;;6.54;100.00
37778;BME280;23615;51.506;7.678;2024-03-06T09:14:31;100639.41;;;6.55;100.00
37778;BME280;23615;51.506;7.678;2024-03-06T09:16:57;100644.13;;;6.59;100.00
37778;BME280;23615;51.506;7.678;2024-03-06T09:19:22;100641.66;;;6.58;100.00
37778;BME280;23615;51.506;7.678;2024-03-06T09:21:48;100641.56;;;6.66;100.00
37778;BME280;23615;51.506;7.678;2024-03-06T09:24:13;100641.22;;;6.69;100.00
37778;BME280;23615;51.506;7.678;2024-03-06T09:26:39;100642.94;;;6.76;100.00
37778;BME280;23615;51.506;7.678;2024-03-06T09:29:04;100646.88;;;6.95;100.00
37778;BME280;23615;51.506;7.678;2024-03-06T09:31:30;100652.69;;;7.20;100.00
37778;BME280;23615;51.506;7.678;2024-03-06T09:33:55;100653.13;;;7.24;100.00
37778;BME280;23615;51.506;7.678;2024-03-06T09:36:20;100642.34;;;7.25;100.00
37778;BME280;23615;51.506;7.678;2024-03-06T09:38:46;100651.78;;;7.28;100.00
37778;BME280;23615;51.506;7.678;2024-03-06T09:41:11;100653.59;;;7.27;100.00
37778;BME280;23615;51.506;7.678;2024-03-06T09:43:36;100653.72;;;7.40;100.00
37778;BME280;23615;51.506;7.678;2024-03-06T09:46:02;100659.88;;;7.41;100.00
37778;BME280;23615;51.506;7.678;2024-03-06T09:48:27;100660.81;;;7.33;100.00
37778;BME280;23615;51.506;7.678;2024-03-06T09:50:53;100667.31;;;7.31;100.00
37778;BME280;23615;51.506;7.678;2024-03-06T09:53:21;100662.44;;;7.34;100.00
37778;BME280;23615;51.506;7.678;2024-03-06T09:55:47;100667.47;;;7.44;100.00
37778;BME280;23615;51.506;7.678;2024-03-06T09:58:13;100670.00;;;7.52;100.00
37778;BME280;23615;51.506;7.678;2024-03-06T10:00:38;100672.47;;;7.54;100.00
37778;BME280;23615;51.506;7.678;2024-03-06T10:03:04;100678.78;;;7.53;100.00
37778;BME280;23615;51.506;7.678;2024-03-06T10:05:31;100674.56;;;7.58;100.00
37778;BME280;23615;51.506;7.678;2024-03-06T10:07:59;100686.47;;;7.62;100.00
37778;BME280;23615;51.506;7.678;2024-03-06T10:10:25;100688.53;;;7.67;100.00
37778;BME280;23615;51.506;7.678;2024-03-06T10:12:52;100684.69;;;7.69;100.00
37778;BME280;23615;51.506;7.678;2024-03-06T10:15:17;100686.53;;;7.69;100.00
37778;BME280;23615;51.506;7.678;2024-03-06T10:17:43;100685.28;;;7.65;100.00
37778;BME280;23615;51.506;7.678;2024-03-06T10:20:17;100694.13;;;7.72;100.00
37778;BME280;23615;51.506;7.678;2024-03-06T10:22:46;100690.88;;;7.76;100.00
37778;BME280;23615;51.506;7.678;2024-03-06T10:25:12;100699.94;;;7.82;100.00
37778;BME280;23615;51.506;7.678;2024-03-06T10:27:37;100683.25;;;7.88;100.00
37778;BME280;23615;51.506;7.678;2024-03-06T10:30:03;100687.16;;;7.92;100.00
37778;BME280;23615;51.506;7.678;2024-03-06T10:32:30;100698.28;;;8.02;100.00
37778;BME280;23615;51.506;7.678;2024-03-06T10:34:56;100690.25;;;8.17;100.00
37778;BME280;23615;51.506;7.678;2024-03-06T10:37:22;100700.84;;;8.32;100.00
37778;BME280;23615;51.506;7.678;2024-03-06T10:39:51;100699.25;;;8.37;100.00
37778;BME280;23615;51.506;7.678;2024-03-06T10:42:20;100701.84;;;8.58;100.00
37778;BME280;23615;51.506;7.678;2024-03-06T10:44:52;100695.41;;;8.74;100.00
37778;BME280;23615;51.506;7.678;2024-03-06T10:47:18;100693.19;;;8.78;100.00
37778;BME280;23615;51.506;7.678;2024-03-06T10:49:45;100702.44;;;8.82;100.00
37778;BME280;23615;51.506;7.678;2024-03-06T10:52:11;100697.00;;;8.96;100.00
37778;BME280;23615;51.506;7.678;2024-03-06T10:54:37;100701.16;;;9.12;100.00
37778;BME280;23615;51.506;7.678;2024-03-06T10:57:07;100702.22;;;9.18;100.00
37778;BME280;23615;51.506;7.678;2024-03-06T10:59:34;100695.53;;;9.28;100.00
37778;BME280;23615;51.506;7.678;2024-03-06T11:02:00;100698.41;;;9.40;100.00
37778;BME280;23615;51.506;7.678;2024-03-06T11:04:30;100704.00;;;9.45;100.00
37778;BME280;23615;51.506;7.678;2024-03-06T11:07:00;100693.53;;;9.44;100.00
37778;BME280;23615;51.506;7.678;2024-03-06T11:09:35;100704.63;;;9.54;100.00
37778;BME280;23615;51.506;7.678;2024-03-06T11:12:04;100701.34;;;9.52;99.48
37778;BME280;23615;51.506;7.678;2024-03-06T11:14:32;100697.22;;;9.43;99.49
37778;BME280;23615;51.506;7.678;2024-03-06T11:17:10;100704.72;;;9.26;100.00
37778;BME280;23615;51.506;7.678;2024-03-06T11:28:24;100707.19;;;9.27;100.00
37778;BME280;23615;51.506;7.678;2024-03-06T11:31:07;100703.50;;;9.28;100.00
37778;BME280;23615;51.506;7.678;2024-03-06T11:33:40;100706.19;;;9.35;100.00
37778;BME280;23615;51.506;7.678;2024-03-06T11:36:19;100712.34;;;9.35;100.00
37778;BME280;23615;51.506;7.678;2024-03-06T11:38:51;100710.69;;;9.34;100.00
37778;BME280;23615;51.506;7.678;2024-03-06T11:41:23;100713.53;;;9.26;100.00
37778;BME280;23615;51.506;7.678;2024-03-06T11:43:50;100710.69;;;9.34;100.00
37778;BME280;23615;51.506;7.678;2024-03-06T11:46:18;100715.63;;;9.37;100.00
37778;BME280;23615;51.506;7.678;2024-03-06T11:48:51;100709.91;;;9.41;100.00
37778;BME280;23615;51.506;7.678;2024-03-06T11:51:18;100701.31;;;9.45;100.00
37778;BME280;23615;51.506;7.678;2024-03-06T11:53:43;100705.84;;;9.51;100.00
37778;BME280;23615;51.506;7.678;2024-03-06T11:56:09;100716.94;;;9.55;100.00
37778;BME280;23615;51.506;7.678;2024-03-06T11:58:35;100706.88;;;9.57;100.00
37778;BME280;23615;51.506;7.678;2024-03-06T12:01:00;100719.44;;;9.69;100.00
37778;BME280;23615;51.506;7.678;2024-03-06T12:03:27;100716.38;;;9.79;100.00
37778;BME280;23615;51.506;7.678;2024-03-06T12:05:52;100712.06;;;9.85;100.00
37778;BME280;23615;51.506;7.678;2024-03-06T12:08:18;100711.88;;;9.86;99.74
37778;BME280;23615;51.506;7.678;2024-03-06T12:10:45;100714.38;;;10.01;99.68
37778;BME280;23615;51.506;7.678;2024-03-06T12:13:11;100717.69;;;10.16;99.82
37778;BME280;23615;51.506;7.678;2024-03-06T12:15:36;100713.81;;;10.25;99.03
37778;BME280;23615;51.506;7.678;2024-03-06T12:18:02;100721.59;;;10.40;99.05
37778;BME280;23615;51.506;7.678;2024-03-06T12:20:27;100722.44;;;10.54;97.45
37778;BME280;23615;51.506;7.678;2024-03-06T12:22:53;100713.19;;;10.63;96.93
37778;BME280;23615;51.506;7.678;2024-03-06T12:25:23;100714.41;;;10.80;96.48
37778;BME280;23615;51.506;7.678;2024-03-06T12:27:50;100719.13;;;10.91;96.53
37778;BME280;23615;51.506;7.678;2024-03-06T12:30:22;100720.75;;;10.99;95.99
37778;BME280;23615;51.506;7.678;2024-03-06T12:33:00;100725.81;;;11.13;95.96
37778;BME280;23615;51.506;7.678;2024-03-06T12:35:30;100717.78;;;11.20;95.69
37778;BME280;23615;51.506;7.678;2024-03-06T12:37:55;100716.59;;;11.16;95.24
37778;BME280;23615;51.506;7.678;2024-03-06T12:40:21;100715.41;;;10.85;93.30
37778;BME280;23615;51.506;7.678;2024-03-06T12:42:46;100721.19;;;10.76;93.92
37778;BME280;23615;51.506;7.678;2024-03-06T12:45:12;100719.75;;;10.73;93.88
37778;BME280;23615;51.506;7.678;2024-03-06T12:47:42;100714.66;;;10.52;93.98
37778;BME280;23615;51.506;7.678;2024-03-06T12:50:08;100716.91;;;10.55;94.88
37778;BME280;23615;51.506;7.678;2024-03-06T12:52:37;100720.81;;;10.53;95.14
37778;BME280;23615;51.506;7.678;2024-03-06T12:55:03;100714.66;;;10.45;95.85